Time;durP1;ratioP1;P1;durP2;ratioP2;P2;SDS_P1;SDS_P2;PMS_P1;PMS_P2;Temp;Humidity;BMP_temperature;BMP_pressure;BME280_temperature;BME280_humidity;BME280_pressure;Samples;Min_cycle;Max_cycle;Signal;HPM_P1;HPM_P2
2022/03/02 00:00:06;;;;;;;;;;;5.10;91.30;;;3.45;51.51;102251.94;2567506;30;137152;-41
2022/03/02 00:02:35;;;;;;;;;;;5.10;91.40;;;3.39;50.73;102257.88;2567907;30;137237;-41
2022/03/02 00:05:03;;;;;;;;;;;5.00;91.00;;;3.38;50.37;102258.00;2565089;30;137425;-41
2022/03/02 00:07:30;;;;;;;;;;;5.00;90.80;;;3.34;50.34;102257.41;2568314;30;137238;-41
2022/03/02 00:09:58;;;;;;;;;;;4.90;90.70;;;3.26;51.07;102252.66;2568939;30;136644;-41
2022/03/02 00:12:25;;;;;;;;;;;4.90;91.30;;;3.19;51.08;102251.47;2569466;30;137256;-41
2022/03/02 00:14:53;;;;;;;;;;;4.80;91.30;;;3.15;50.05;102252.69;2568729;30;137048;-41
2022/03/02 00:17:20;;;;;;;;;;;4.80;90.70;;;3.09;49.95;102251.38;2569003;30;137244;-41
2022/03/02 00:19:48;;;;;;;;;;;4.70;90.40;;;3.05;50.06;102258.00;2568834;30;137058;-41
2022/03/02 00:22:15;;;;;;;;;;;4.70;90.60;;;2.96;50.60;102251.53;2569362;30;138300;-41
2022/03/02 00:24:43;;;;;;;;;;;4.60;90.90;;;2.92;51.40;102254.59;2568745;30;137010;-41
2022/03/02 00:27:11;;;;;;;;;;;4.60;91.30;;;2.88;52.04;102251.28;2568854;30;137146;-41
2022/03/02 00:29:39;;;;;;;;;;;4.50;91.60;;;2.83;52.88;102249.00;2568436;30;136926;-41
2022/03/02 00:32:07;;;;;;;;;;;4.50;92.20;;;2.75;52.53;102253.31;2568232;30;137370;-40
2022/03/02 00:34:34;;;;;;;;;;;4.40;92.10;;;2.68;52.87;102253.81;2569081;30;137047;-41
2022/03/02 00:37:02;;;;;;;;;;;4.40;92.10;;;2.62;53.17;102248.06;2569694;30;138273;-41
2022/03/02 00:39:29;;;;;;;;;;;4.30;92.30;;;2.54;53.25;102245.97;2568576;30;137146;-41
2022/03/02 00:41:57;;;;;;;;;;;4.20;92.60;;;2.49;53.15;102240.13;2569048;30;137214;-41
2022/03/02 00:44:24;;;;;;;;;;;4.20;92.40;;;2.47;53.30;102239.38;2568416;30;136747;-41
2022/03/02 00:46:52;;;;;;;;;;;4.10;92.40;;;2.42;54.30;102237.06;2569663;30;137416;-41
2022/03/02 00:49:22;;;;;;;;;;;4.10;93.00;;;2.26;55.35;102222.16;2565682;30;137172;-41
2022/03/02 00:51:50;;;;;;;;;;;4.00;93.60;;;2.27;53.78;102239.16;2567843;30;138116;-41
2022/03/02 00:54:17;;;;;;;;;;;4.00;92.90;;;2.22;55.80;102235.97;2567924;30;136975;-41
2022/03/02 00:56:44;;;;;;;;;;;3.90;94.10;;;2.15;54.91;102236.47;2569305;30;137094;-41
2022/03/02 00:59:12;;;;;;;;;;;3.90;93.40;;;2.08;58.91;102224.44;2569088;30;136735;-41
2022/03/02 01:02:21;;;;;;;;;;;3.80;95.80;;;1.84;59.59;102217.34;2570058;30;136916;-40
2022/03/02 01:04:48;;;;;;;;;;;3.70;96.60;;;1.82;60.73;102224.66;2570545;30;137815;-41
2022/03/02 01:07:16;;;;;;;;;;;3.60;97.10;;;1.74;60.83;102229.81;2569587;30;139238;-40
2022/03/02 01:09:44;;;;;;;;;;;3.50;97.40;;;1.63;60.75;102214.50;2569566;30;137084;-39
2022/03/02 01:12:12;;;;;;;;;;;3.40;97.30;;;1.55;59.32;102215.09;2569835;30;137428;-39
2022/03/02 01:14:39;;;;;;;;;;;3.30;96.50;;;1.54;58.85;102209.84;2572176;30;137175;-42
2022/03/02 01:17:07;;;;;;;;;;;3.30;95.90;;;1.50;61.18;102208.38;2568038;30;138684;-39
2022/03/02 01:19:36;;;;;;;;;;;3.20;97.50;;;1.46;62.66;102201.50;2570428;30;137393;-39
2022/03/02 01:22:03;;;;;;;;;;;3.20;98.60;;;1.40;62.54;102198.31;2569352;30;138354;-39
2022/03/02 01:24:31;;;;;;;;;;;3.10;98.80;;;1.36;62.15;102202.19;2569090;30;136970;-39
2022/03/02 01:27:01;;;;;;;;;;;3.10;98.60;;;1.31;63.32;102196.34;2568429;30;139045;-39
2022/03/02 01:29:30;;;;;;;;;;;3.00;99.40;;;1.24;64.01;102195.94;2567705;30;137354;-40
2022/03/02 01:31:58;;;;;;;;;;;3.00;99.90;;;1.20;65.28;102197.16;2567517;30;138155;-39
2022/03/02 01:34:25;;;;;;;;;;;2.90;99.90;;;1.12;66.02;102191.50;2570489;30;137116;-39
2022/03/02 01:36:53;;;;;;;;;;;2.90;99.90;;;1.09;66.56;102194.44;2568158;30;137279;-39
2022/03/02 01:39:20;;;;;;;;;;;2.80;99.90;;;1.03;67.48;102187.69;2569152;30;137980;-41
2022/03/02 01:41:48;;;;;;;;;;;2.80;99.90;;;0.98;68.04;102185.31;2569273;30;139152;-39
2022/03/02 01:44:16;;;;;;;;;;;2.70;99.90;;;0.95;67.96;102188.25;2569166;30;137249;-39
2022/03/02 01:46:44;;;;;;;;;;;2.70;99.90;;;0.88;66.96;102181.63;2569600;30;137408;-39
2022/03/02 01:49:12;;;;;;;;;;;2.60;99.90;;;0.83;67.69;102181.13;2569337;30;137234;-39
2022/03/02 01:51:39;;;;;;;;;;;2.60;99.90;;;0.77;68.37;102184.25;2569429;30;137337;-39
2022/03/02 01:54:08;;;;;;;;;;;2.50;99.90;;;0.71;69.12;102174.84;2568357;30;137293;-41
2022/03/02 01:56:36;;;;;;;;;;;2.40;99.90;;;0.62;68.93;102171.00;2568649;30;138642;-39
2022/03/02 01:59:04;;;;;;;;;;;2.40;99.90;;;0.61;68.22;102182.72;2569685;30;137055;-42
2022/03/02 02:01:32;;;;;;;;;;;2.40;99.90;;;0.57;67.89;102179.38;2568478;30;138290;-39
2022/03/02 02:04:01;;;;;;;;;;;2.30;99.90;;;0.61;67.57;102176.47;2569254;30;138541;-39
2022/03/02 02:06:29;;;;;;;;;;;2.30;99.90;;;0.54;67.96;102181.47;2569068;30;139019;-39
2022/03/02 02:09:00;;;;;;;;;;;2.30;99.90;;;0.53;70.04;102174.34;2567761;30;137565;-39
2022/03/02 02:11:30;;;;;;;;;;;2.30;99.90;;;0.52;68.51;102175.31;2570401;30;138153;-41
2022/03/02 02:13:58;;;;;;;;;;;2.30;99.90;;;0.45;70.70;102169.56;2570389;30;136781;-39
2022/03/02 02:16:26;;;;;;;;;;;2.20;99.90;;;0.36;72.84;102157.66;2568983;30;138717;-39
2022/03/02 02:18:57;;;;;;;;;;;2.20;99.90;;;0.41;73.05;102170.78;2567031;30;137875;-39
2022/03/02 02:21:24;;;;;;;;;;;2.20;99.90;;;0.39;73.37;102165.50;2569589;30;140021;-41
2022/03/02 02:23:51;;;;;;;;;;;2.10;99.90;;;0.34;72.35;102170.34;2570361;30;137046;-40
2022/03/02 02:26:21;;;;;;;;;;;2.10;99.90;;;0.31;72.96;102162.53;2570333;30;137842;-39
2022/03/02 02:28:50;;;;;;;;;;;2.10;99.90;;;0.21;73.75;102150.72;2570362;30;137254;-40
2022/03/02 02:31:18;;;;;;;;;;;2.00;99.90;;;0.21;72.79;102159.66;2567857;30;137399;-39
2022/03/02 02:33:46;;;;;;;;;;;2.00;99.90;;;0.16;71.29;102152.88;2568844;30;137123;-39
2022/03/02 02:36:14;;;;;;;;;;;1.90;99.90;;;0.12;72.62;102153.13;2566634;30;138655;-39
2022/03/02 02:38:42;;;;;;;;;;;1.90;99.90;;;0.04;73.17;102142.09;2569504;30;138056;-39
2022/03/02 02:41:10;;;;;;;;;;;1.80;99.90;;;0.01;73.75;102142.31;2569329;30;137352;-39
2022/03/02 02:43:42;;;;;;;;;;;1.80;99.90;;;-0.02;74.04;102137.13;2569588;30;137754;-41
2022/03/02 02:46:11;;;;;;;;;;;1.80;99.90;;;-0.10;73.85;102131.47;2570445;30;137877;-39
2022/03/02 02:48:39;;;;;;;;;;;1.70;99.90;;;-0.06;73.78;102143.69;2566039;30;137287;-40
2022/03/02 02:51:07;;;;;;;;;;;1.70;99.90;;;-0.02;73.58;102140.69;2568226;30;138392;-40
2022/03/02 02:53:34;;;;;;;;;;;1.70;99.90;;;0.00;73.05;102137.91;2566924;30;137237;-39
2022/03/02 02:56:03;;;;;;;;;;;1.70;99.90;;;-0.04;73.27;102131.03;2570473;30;138814;-40
2022/03/02 02:58:30;;;;;;;;;;;1.70;99.90;;;-0.08;72.53;102130.41;2570585;30;137838;-39
2022/03/02 03:00:58;;;;;;;;;;;1.70;99.90;;;-0.06;73.81;102133.84;2570370;30;138207;-36
2022/03/02 03:03:25;;;;;;;;;;;1.70;99.90;;;-0.10;73.06;102128.78;2570153;30;136972;-39
2022/03/02 03:05:54;;;;;;;;;;;1.70;99.90;;;-0.20;73.61;102115.19;2567575;30;138314;-39
2022/03/02 03:08:21;;;;;;;;;;;1.60;99.90;;;-0.18;74.63;102132.88;2566728;30;137621;-39
2022/03/02 03:10:49;;;;;;;;;;;1.60;99.90;;;-0.20;75.14;102124.09;2570360;30;139058;-40
2022/03/02 03:13:17;;;;;;;;;;;1.60;99.90;;;-0.16;74.83;102130.09;2569864;30;136936;-39
2022/03/02 03:15:44;;;;;;;;;;;1.60;99.90;;;-0.25;74.70;102120.88;2568074;30;138261;-40
2022/03/02 03:18:12;;;;;;;;;;;1.60;99.90;;;-0.20;73.16;102121.41;2570231;30;136964;-39
2022/03/02 03:20:39;;;;;;;;;;;1.60;99.90;;;-0.19;74.94;102122.25;2569646;30;138844;-39
2022/03/02 03:23:08;;;;;;;;;;;1.50;99.90;;;-0.24;75.74;102119.91;2571493;30;138415;-39
2022/03/02 03:25:36;;;;;;;;;;;1.50;99.90;;;-0.27;75.34;102121.94;2570131;30;139019;-40
2022/03/02 03:28:04;;;;;;;;;;;1.50;99.90;;;-0.30;75.94;102114.97;2569629;30;137813;-39
2022/03/02 03:30:32;;;;;;;;;;;1.50;99.90;;;-0.36;76.64;102115.41;2570209;30;138537;-39
2022/03/02 03:33:02;;;;;;;;;;;1.40;99.90;;;-0.38;76.29;102109.31;2570980;30;136787;-41
2022/03/02 03:35:29;;;;;;;;;;;1.40;99.90;;;-0.42;76.81;102108.66;2567295;30;137288;-39
2022/03/02 03:37:57;;;;;;;;;;;1.40;99.90;;;-0.45;76.91;102112.44;2570326;30;137984;-40
2022/03/02 03:40:24;;;;;;;;;;;1.40;99.90;;;-0.46;77.40;102113.41;2570604;30;138314;-39
2022/03/02 03:42:53;;;;;;;;;;;1.30;99.90;;;-0.51;78.53;102107.50;2570305;30;137206;-39
2022/03/02 03:45:21;;;;;;;;;;;1.30;99.90;;;-0.53;78.04;102113.94;2568558;30;137264;-39
2022/03/02 03:47:49;;;;;;;;;;;1.30;99.90;;;-0.56;78.25;102111.47;2568063;30;137510;-39
2022/03/02 03:50:17;;;;;;;;;;;1.20;99.90;;;-0.50;79.02;102106.53;2569403;30;139079;-39
2022/03/02 03:52:44;;;;;;;;;;;1.30;99.90;;;-0.54;78.23;102112.22;2565510;30;137396;-39
2022/03/02 03:55:14;;;;;;;;;;;1.20;99.90;;;-0.56;78.54;102114.16;2570358;30;138337;-39
2022/03/02 03:57:42;;;;;;;;;;;1.20;99.90;;;-0.59;80.69;102104.47;2569450;30;137367;-39
2022/03/02 04:00:14;;;;;;;;;;;1.20;99.90;;;-0.56;81.75;102106.09;2569619;30;138424;-40
2022/03/02 04:02:41;;;;;;;;;;;1.20;99.90;;;-0.64;81.97;102101.28;2568978;30;137167;-39
2022/03/02 04:05:09;;;;;;;;;;;1.20;99.90;;;-0.62;83.27;102100.22;2569769;30;138364;-41
2022/03/02 04:07:40;;;;;;;;;;;1.20;99.90;;;-0.67;82.37;102105.00;2570916;30;138037;-39
2022/03/02 04:10:09;;;;;;;;;;;1.10;99.90;;;-0.69;81.70;102103.44;2567155;30;138377;-39
2022/03/02 04:12:37;;;;;;;;;;;1.10;99.90;;;-0.74;82.04;102112.66;2571863;30;137143;-40
2022/03/02 04:15:06;;;;;;;;;;;1.10;99.90;;;-0.74;82.35;102112.66;2568015;30;138588;-39
2022/03/02 04:17:33;;;;;;;;;;;1.10;99.90;;;-0.76;82.63;102103.84;2569970;30;137094;-39
2022/03/02 04:20:01;;;;;;;;;;;1.00;99.90;;;-0.82;82.89;102092.69;2570121;30;138326;-39
2022/03/02 04:22:28;;;;;;;;;;;1.00;99.90;;;-0.77;82.46;102102.16;2570006;30;137137;-39
2022/03/02 04:24:56;;;;;;;;;;;1.00;99.90;;;-0.79;81.28;102104.06;2568805;30;139432;-39
2022/03/02 04:27:23;;;;;;;;;;;1.00;99.90;;;-0.75;80.22;102102.03;2572319;30;136998;-39
2022/03/02 04:29:50;;;;;;;;;;;1.00;99.90;;;-0.74;80.83;102099.25;2570046;30;138113;-39
2022/03/02 04:32:18;;;;;;;;;;;1.10;99.90;;;-0.78;80.24;102084.34;2568570;30;136804;-39
2022/03/02 04:34:45;;;;;;;;;;;1.00;99.90;;;-0.76;81.12;102084.22;2571020;30;137208;-39
2022/03/02 04:37:13;;;;;;;;;;;1.00;99.90;;;-0.78;82.14;102084.34;2569676;30;137210;-39
2022/03/02 04:39:40;;;;;;;;;;;1.00;99.90;;;-0.86;82.83;102075.97;2568110;30;137365;-39
2022/03/02 04:42:08;;;;;;;;;;;1.00;99.90;;;-0.83;83.36;102078.44;2569630;30;137295;-39
2022/03/02 04:44:35;;;;;;;;;;;1.00;99.90;;;-0.86;82.34;102070.59;2572372;30;138278;-41
2022/03/02 04:47:03;;;;;;;;;;;1.00;99.90;;;-0.80;81.65;102080.03;2566785;30;136953;-39
2022/03/02 04:49:30;;;;;;;;;;;0.90;99.90;;;-0.83;81.22;102069.53;2569419;30;139021;-39
2022/03/02 04:51:58;;;;;;;;;;;1.00;99.90;;;-0.84;81.23;102066.00;2573709;30;137064;-39
2022/03/02 04:57:12;;;;;;;;;;;1.00;99.90;;;-0.71;82.37;102067.81;2570109;30;137868;-39
2022/03/02 04:59:40;;;;;;;;;;;1.00;99.90;;;-0.75;81.97;102070.72;2569178;30;138247;-43
2022/03/02 05:02:07;;;;;;;;;;;1.00;99.90;;;-0.74;82.02;102071.56;2567328;30;137790;-40
2022/03/02 05:04:35;;;;;;;;;;;1.00;99.90;;;-0.71;82.06;102070.50;2569329;30;138463;-40
2022/03/02 05:07:03;;;;;;;;;;;1.00;99.90;;;-0.71;81.04;102060.63;2569544;30;137010;-39
2022/03/02 05:09:30;;;;;;;;;;;1.00;99.90;;;-0.74;81.57;102060.84;2569727;30;138999;-42
2022/03/02 05:11:57;;;;;;;;;;;1.00;99.90;;;-0.77;81.80;102061.94;2569040;30;137014;-39
2022/03/02 05:14:25;;;;;;;;;;;1.00;99.90;;;-0.78;81.34;102059.34;2571343;30;138210;-39
2022/03/02 05:16:52;;;;;;;;;;;1.00;99.90;;;-0.79;81.41;102061.19;2568924;30;137317;-39
2022/03/02 05:19:19;;;;;;;;;;;0.90;99.90;;;-0.80;82.52;102062.13;2569910;30;137236;-40
2022/03/02 05:21:47;;;;;;;;;;;0.90;99.90;;;-0.82;83.40;102064.06;2569542;30;137321;-39
2022/03/02 05:24:15;;;;;;;;;;;1.00;99.90;;;-0.86;84.62;102062.56;2569841;30;138319;-39
2022/03/02 05:26:42;;;;;;;;;;;0.90;99.90;;;-0.90;86.18;102058.38;2570213;30;137059;-39
2022/03/02 05:29:11;;;;;;;;;;;0.90;99.90;;;-0.95;86.50;102060.53;2568942;30;138896;-39
2022/03/02 05:31:38;;;;;;;;;;;0.80;99.90;;;-0.98;85.87;102066.94;2569717;30;137044;-39
2022/03/02 05:34:06;;;;;;;;;;;0.80;99.90;;;-1.04;85.23;102059.34;2571000;30;138218;-39
2022/03/02 05:36:33;;;;;;;;;;;0.70;99.90;;;-1.04;84.98;102060.22;2569523;30;137306;-41
2022/03/02 05:39:00;;;;;;;;;;;0.70;99.90;;;-1.06;85.88;102055.91;2568878;30;138219;-39
2022/03/02 05:41:28;;;;;;;;;;;0.70;99.90;;;-1.17;86.60;102046.81;2569896;30;137130;-40
2022/03/02 05:43:55;;;;;;;;;;;0.70;99.90;;;-1.18;86.63;102044.22;2569634;30;138682;-39
2022/03/02 05:46:23;;;;;;;;;;;0.70;99.90;;;-1.14;87.21;102063.63;2569561;30;137182;-39
2022/03/02 05:48:52;;;;;;;;;;;0.60;99.90;;;-1.17;86.92;102062.00;2570524;30;138998;-40
2022/03/02 05:51:20;;;;;;;;;;;0.60;99.90;;;-1.21;87.01;102066.69;2568360;30;138237;-39
2022/03/02 05:53:48;;;;;;;;;;;0.60;99.90;;;-1.25;86.95;102059.00;2569503;30;138943;-39
2022/03/02 05:56:15;;;;;;;;;;;0.50;99.90;;;-1.35;86.95;102067.63;2569749;30;137892;-40
2022/03/02 05:58:43;;;;;;;;;;;0.50;99.90;;;-1.35;87.33;102067.63;2571147;30;138944;-41
2022/03/02 07:00:36;;;;;;;;;;;0.40;99.90;;;-1.10;86.77;102074.00;1384608;30;3624608106;31
2022/03/02 07:03:10;;;;;;;;;;;0.60;99.90;;;-1.06;86.53;102070.19;2568518;30;138824;-40
2022/03/02 07:05:39;;;;;;;;;;;0.60;99.90;;;-0.98;86.59;102071.47;2569358;30;137095;-41
2022/03/02 07:08:08;;;;;;;;;;;0.70;99.90;;;-0.89;85.77;102070.81;2568601;30;137793;-41
2022/03/02 07:10:36;;;;;;;;;;;0.70;99.90;;;-0.78;84.56;102084.34;2567855;30;137345;-40
2022/03/02 07:13:06;;;;;;;;;;;0.80;99.90;;;-0.74;82.91;102068.88;2567890;30;138373;-41
2022/03/02 07:15:35;;;;;;;;;;;0.90;99.90;;;-0.60;83.51;102087.56;2569036;30;137423;-40
2022/03/02 07:18:04;;;;;;;;;;;1.00;99.90;;;-0.50;81.44;102090.44;2568652;30;138351;-41
2022/03/02 07:20:31;;;;;;;;;;;1.10;99.90;;;-0.37;81.71;102087.75;2568637;30;137136;-40
2022/03/02 07:23:01;;;;;;;;;;;1.20;99.90;;;-0.25;81.88;102088.69;2568945;30;138281;-41
2022/03/02 07:25:34;;;;;;;;;;;1.30;99.90;;;-0.04;78.52;102085.41;2568223;30;137788;-41
2022/03/02 07:28:02;;;;;;;;;;;1.50;99.90;;;0.14;78.86;102089.44;2568119;30;139372;-41
2022/03/02 07:30:29;;;;;;;;;;;1.60;99.90;;;0.31;78.51;102086.47;2567956;30;136821;-41
2022/03/02 07:33:02;;;;;;;;;;;1.70;99.90;;;0.53;76.48;102089.28;2568548;30;137733;-41
2022/03/02 07:35:32;;;;;;;;;;;1.90;99.90;;;0.73;73.21;102086.03;2569173;30;136816;-40
2022/03/02 07:38:00;;;;;;;;;;;2.10;99.90;;;0.85;74.68;102085.97;2566491;30;138789;-41
2022/03/02 07:40:28;;;;;;;;;;;2.30;99.90;;;1.03;73.23;102084.66;2568202;30;137201;-41
2022/03/02 07:42:55;;;;;;;;;;;2.40;99.90;;;1.17;74.89;102087.16;2568946;30;138143;-41
2022/03/02 07:45:23;;;;;;;;;;;2.50;99.90;;;1.28;73.49;102078.25;2567991;30;137919;-41
2022/03/02 07:47:50;;;;;;;;;;;2.70;99.90;;;1.42;73.35;102082.53;2568179;30;138265;-40
2022/03/02 07:50:18;;;;;;;;;;;2.80;99.90;;;1.55;72.40;102082.44;2568847;30;137010;-41
2022/03/02 07:52:48;;;;;;;;;;;2.90;99.90;;;1.69;71.62;102078.63;2567928;30;137350;-40
2022/03/02 07:55:17;;;;;;;;;;;3.00;99.90;;;1.84;71.40;102076.53;2568222;30;138275;-41
2022/03/02 07:57:50;;;;;;;;;;;3.10;99.90;;;1.98;69.38;102075.41;2568273;30;137301;-41
2022/03/02 08:00:17;;;;;;;;;;;3.30;99.90;;;2.13;67.96;102074.16;2568178;30;137059;-41
2022/03/02 08:02:47;;;;;;;;;;;3.50;99.90;;;2.26;68.23;102075.84;2568924;30;137622;-41
2022/03/02 08:05:14;;;;;;;;;;;3.60;99.90;;;2.39;67.60;102078.38;2568312;30;137256;-41
2022/03/02 08:07:42;;;;;;;;;;;3.70;99.90;;;2.54;66.80;102062.75;2568421;30;138178;-41
2022/03/02 08:10:10;;;;;;;;;;;3.80;99.90;;;2.72;66.56;102072.00;2568259;30;137902;-41
2022/03/02 08:12:39;;;;;;;;;;;4.00;99.90;;;2.90;67.41;102063.31;2568415;30;137418;-41
2022/03/02 08:15:07;;;;;;;;;;;4.10;99.90;;;3.06;67.70;102062.00;2569692;30;136654;-41
2022/03/02 08:17:35;;;;;;;;;;;4.30;99.90;;;3.21;67.87;102057.13;2569087;30;137180;-41
2022/03/02 08:20:04;;;;;;;;;;;4.50;99.90;;;3.35;65.39;102055.91;2567713;30;137394;-41
2022/03/02 08:22:34;;;;;;;;;;;4.60;99.90;;;3.46;63.03;102063.94;2568775;30;138430;-41
2022/03/02 08:25:12;;;;;;;;;;;4.70;99.90;;;3.64;62.49;102061.44;2567518;30;136793;-41
2022/03/02 08:27:43;;;;;;;;;;;4.90;99.90;;;3.78;61.03;102056.66;2568548;30;137120;-41
2022/03/02 08:30:13;;;;;;;;;;;5.10;99.90;;;3.88;61.26;102058.38;2568733;30;138151;-41
2022/03/02 08:32:46;;;;;;;;;;;5.20;99.90;;;4.03;60.84;102058.00;2567724;30;138359;-41
2022/03/02 08:35:14;;;;;;;;;;;5.30;99.90;;;4.17;61.17;102056.75;2569332;30;137220;-41
2022/03/02 08:37:42;;;;;;;;;;;5.40;99.90;;;4.30;59.21;102056.47;2568687;30;138430;-41
2022/03/02 08:40:10;;;;;;;;;;;5.50;99.90;;;4.43;56.51;102057.03;2568637;30;137129;-41
2022/03/02 08:42:38;;;;;;;;;;;5.60;99.90;;;4.55;55.99;102041.53;2568671;30;138998;-41
2022/03/02 08:45:07;;;;;;;;;;;5.80;99.90;;;4.71;54.42;102051.78;2567972;30;137965;-41
2022/03/02 08:47:35;;;;;;;;;;;5.90;99.90;;;4.87;52.73;102043.06;2569050;30;137478;-41
2022/03/02 08:50:04;;;;;;;;;;;6.00;99.90;;;5.04;54.73;102038.78;2566548;30;137797;-41
2022/03/02 08:52:33;;;;;;;;;;;6.20;99.90;;;5.18;53.54;102034.75;2568058;30;138275;-41
2022/03/02 08:55:04;;;;;;;;;;;6.40;99.90;;;5.33;51.18;102028.88;2568643;30;136655;-41
2022/03/02 08:57:34;;;;;;;;;;;6.50;98.50;;;5.45;50.68;102024.97;2568009;30;138189;-41
2022/03/02 09:00:07;;;;;;;;;;;6.60;98.30;;;5.59;48.10;102026.34;2569179;30;137747;-41
2022/03/02 09:02:39;;;;;;;;;;;6.80;95.80;;;5.75;48.54;102028.41;2568753;30;138455;-41
2022/03/02 09:05:08;;;;;;;;;;;6.90;96.30;;;5.86;46.44;102026.47;2566630;30;137888;-41
2022/03/02 09:07:35;;;;;;;;;;;7.10;94.30;;;6.00;49.97;102020.56;2567940;30;137463;-41
2022/03/02 09:10:04;;;;;;;;;;;7.20;96.20;;;6.11;47.82;102030.34;2569029;30;137348;-41
2022/03/02 09:12:32;;;;;;;;;;;7.20;95.10;;;6.23;45.70;102030.13;2569130;30;137074;-41
2022/03/02 09:15:00;;;;;;;;;;;7.40;93.50;;;6.34;45.38;102027.16;2568802;30;137090;-41
2022/03/02 09:17:28;;;;;;;;;;;7.40;93.10;;;6.50;46.12;102026.50;2568550;30;138241;-41
2022/03/02 09:19:55;;;;;;;;;;;7.60;93.20;;;6.60;45.17;102026.38;2568883;30;136673;-41
2022/03/02 09:22:25;;;;;;;;;;;7.70;92.20;;;6.64;44.00;102019.66;2568790;30;138021;-41
2022/03/02 09:24:53;;;;;;;;;;;7.80;91.30;;;6.76;47.05;102017.50;2567446;30;137090;-41
2022/03/02 09:27:21;;;;;;;;;;;7.90;93.20;;;6.86;45.01;102023.72;2568976;30;138335;-41
2022/03/02 09:29:52;;;;;;;;;;;8.00;91.90;;;6.93;44.19;102018.50;2567812;30;137902;-41
2022/03/02 09:32:24;;;;;;;;;;;8.10;91.20;;;7.00;44.37;102015.97;2567962;30;139247;-41
2022/03/02 09:34:55;;;;;;;;;;;8.10;91.30;;;7.03;42.67;102013.81;2567017;30;137366;-41
2022/03/02 09:37:24;;;;;;;;;;;8.20;88.70;;;7.13;44.12;102013.72;2566960;30;138372;-41
2022/03/02 09:39:54;;;;;;;;;;;8.30;90.50;;;7.16;42.79;102012.53;2568047;30;136955;-41
2022/03/02 09:42:26;;;;;;;;;;;8.30;88.60;;;7.26;41.41;102007.84;2567945;30;138261;-41
2022/03/02 09:45:06;;;;;;;;;;;8.40;86.40;;;7.23;42.08;102005.47;2567823;30;137803;-41
2022/03/02 09:47:45;;;;;;;;;;;8.40;86.70;;;7.36;41.32;102015.00;2567481;30;138309;-41
2022/03/02 09:50:14;;;;;;;;;;;8.50;85.80;;;7.42;42.66;102011.63;2568035;30;136973;-41
2022/03/02 09:52:45;;;;;;;;;;;8.60;87.40;;;7.51;42.07;102007.97;2568253;30;138883;-41
2022/03/02 09:55:15;;;;;;;;;;;8.60;86.50;;;7.58;41.93;102014.44;2569011;30;136780;-41
2022/03/02 09:57:49;;;;;;;;;;;8.70;86.10;;;7.62;39.53;102012.25;2567539;30;139146;-41
2022/03/02 10:00:18;;;;;;;;;;;8.70;81.80;;;7.61;39.81;102008.66;2567244;30;138190;-41
2022/03/02 10:02:49;;;;;;;;;;;8.70;81.60;;;7.70;40.60;102009.56;2567547;30;138401;-41
2022/03/02 10:05:31;;;;;;;;;;;8.90;82.90;;;7.80;40.02;102012.16;2568341;30;137205;-41
2022/03/02 10:08:10;;;;;;;;;;;9.00;81.60;;;7.88;38.56;102017.59;2568672;30;137349;-41
2022/03/02 10:10:40;;;;;;;;;;;9.00;79.10;;;8.00;43.35;102015.41;2566945;30;136971;-41
2022/03/02 10:13:10;;;;;;;;;;;9.10;87.00;;;8.12;41.96;102010.53;2567893;30;137590;-41
2022/03/02 10:15:39;;;;;;;;;;;9.20;84.10;;;8.10;38.51;102014.44;2568207;30;137114;-41
2022/03/02 10:18:11;;;;;;;;;;;9.30;77.90;;;8.21;38.37;102014.94;2567866;30;138323;-41
2022/03/02 10:20:43;;;;;;;;;;;9.40;78.50;;;8.21;37.44;102012.22;2567442;30;137444;-41
2022/03/02 10:23:40;;;;;;;;;;;9.40;75.30;;;8.29;39.44;102008.66;2567209;30;138243;-40
2022/03/02 10:26:11;;;;;;;;;;;9.50;77.60;;;8.35;37.30;102009.88;2567946;30;137193;-41
2022/03/02 10:29:04;;;;;;;;;;;9.50;75.50;;;8.39;36.67;102002.25;2566296;30;138966;-41
2022/03/02 10:31:47;;;;;;;;;;;9.50;73.40;;;8.48;37.00;102002.03;2566651;30;136817;-41
2022/03/02 10:34:26;;;;;;;;;;;9.60;75.60;;;8.57;37.55;102005.66;2568538;30;138994;-41
2022/03/02 10:37:03;;;;;;;;;;;9.70;75.40;;;8.57;35.68;101999.38;2567526;30;138002;-41
2022/03/02 10:39:54;;;;;;;;;;;9.70;72.10;;;8.66;39.24;101986.63;2567713;30;138310;-41
2022/03/02 10:42:26;;;;;;;;;;;9.70;76.00;;;8.76;37.36;101993.59;2567901;30;139470;-41
2022/03/02 10:45:02;;;;;;;;;;;9.80;74.60;;;8.85;36.64;101993.56;2568562;30;138248;-41
2022/03/02 10:47:31;;;;;;;;;;;9.90;73.40;;;8.97;39.94;101988.63;2567719;30;137413;-41
2022/03/02 10:50:00;;;;;;;;;;;10.00;78.20;;;9.02;36.69;101987.09;2568445;30;138641;-41
2022/03/02 10:52:29;;;;;;;;;;;10.10;72.70;;;9.12;36.87;101984.13;2567698;30;137375;-41
2022/03/02 10:54:57;;;;;;;;;;;10.20;73.50;;;9.25;36.24;101982.75;2568237;30;138315;-41
2022/03/02 10:57:25;;;;;;;;;;;10.30;73.50;;;9.25;34.87;101980.88;2568247;30;137079;-41
2022/03/02 10:59:55;;;;;;;;;;;10.40;70.00;;;9.31;36.70;101985.63;2568553;30;139118;-41
2022/03/02 11:02:23;;;;;;;;;;;10.50;71.90;;;9.35;36.48;101975.22;2567370;30;137876;-41
2022/03/02 11:04:54;;;;;;;;;;;10.60;72.80;;;9.41;35.94;101981.84;2568477;30;137286;-41
2022/03/02 11:07:23;;;;;;;;;;;10.60;70.60;;;9.55;37.67;101980.25;2569151;30;136863;-41
2022/03/02 11:09:51;;;;;;;;;;;10.70;73.90;;;9.61;35.51;101966.78;2567579;30;138290;-41
2022/03/02 11:12:22;;;;;;;;;;;10.80;71.20;;;9.73;36.98;101960.91;2567141;30;137854;-41
2022/03/02 11:14:59;;;;;;;;;;;10.90;71.90;;;9.59;35.68;101957.94;2568571;30;139464;-41
2022/03/02 11:17:27;;;;;;;;;;;10.90;71.60;;;9.50;32.85;101958.97;2568286;30;136928;-41
2022/03/02 11:19:57;;;;;;;;;;;10.90;65.40;;;9.53;34.33;101957.78;2569097;30;138089;-41
2022/03/02 11:22:27;;;;;;;;;;;10.80;67.30;;;9.58;36.41;101956.25;2566951;30;137726;-41
2022/03/02 11:24:57;;;;;;;;;;;10.80;70.60;;;9.73;37.23;101952.72;2567316;30;138949;-41
2022/03/02 11:27:29;;;;;;;;;;;10.90;71.80;;;9.76;35.50;101952.38;2569012;30;137094;-41
2022/03/02 11:30:11;;;;;;;;;;;11.00;68.70;;;9.79;34.95;101961.03;2567289;30;138440;-42
2022/03/02 11:32:42;;;;;;;;;;;11.00;68.20;;;9.77;33.38;101952.22;2567494;30;137161;-41
2022/03/02 11:35:19;;;;;;;;;;;11.00;65.10;;;9.85;34.32;101943.13;2568621;30;137149;-41
2022/03/02 11:37:57;;;;;;;;;;;11.00;65.70;;;10.01;35.44;101939.44;2565804;30;137114;-41
2022/03/02 11:40:41;;;;;;;;;;;11.10;68.70;;;9.98;32.99;101937.09;2568869;30;137366;-41
2022/03/02 11:43:14;;;;;;;;;;;11.20;63.90;;;10.19;34.58;101925.50;2568351;30;138143;-42
2022/03/02 11:45:42;;;;;;;;;;;11.30;67.00;;;10.35;32.80;101918.22;2568776;30;138479;-41
2022/03/02 11:48:15;;;;;;;;;;;11.50;64.80;;;10.38;34.19;101922.44;2569392;30;137128;-41
2022/03/02 11:51:01;;;;;;;;;;;11.50;67.30;;;10.41;33.57;101920.25;2569489;30;139180;-41
2022/03/02 11:54:07;;;;;;;;;;;11.60;64.80;;;10.37;33.69;101913.44;2568261;30;136939;-41
2022/03/02 11:56:35;;;;;;;;;;;11.60;66.70;;;10.20;33.83;101919.00;2566964;30;138290;-41
2022/03/02 11:59:08;;;;;;;;;;;11.60;64.20;;;10.28;32.70;101909.06;2567887;30;138174;-41
2022/03/02 12:01:50;;;;;;;;;;;11.60;63.70;;;10.42;31.96;101899.25;2568947;30;138498;-41
2022/03/02 12:04:28;;;;;;;;;;;11.60;62.10;;;10.54;32.93;101903.22;2569074;30;137168;-41
2022/03/02 12:06:56;;;;;;;;;;;11.60;62.50;;;10.64;30.75;101895.59;2568783;30;138269;-42
2022/03/02 12:09:28;;;;;;;;;;;11.70;59.90;;;10.72;31.01;101891.94;2567159;30;138147;-41
2022/03/02 12:12:10;;;;;;;;;;;11.80;60.20;;;10.82;32.90;101893.53;2567902;30;138434;-41
2022/03/02 12:15:01;;;;;;;;;;;12.00;64.60;;;10.72;31.02;101891.94;2568661;30;137291;-41
2022/03/02 12:17:33;;;;;;;;;;;12.00;60.50;;;10.77;30.79;101884.03;2568966;30;136902;-41
2022/03/02 12:20:05;;;;;;;;;;;12.00;59.70;;;10.80;32.17;101877.38;2569335;30;137049;-41
2022/03/02 12:22:36;;;;;;;;;;;12.10;60.10;;;10.92;31.76;101873.13;2567744;30;137246;-41
2022/03/02 12:25:05;;;;;;;;;;;12.20;60.50;;;11.10;33.26;101879.22;2568471;30;137346;-41